Time;durP1;ratioP1;P1;durP2;ratioP2;P2;SDS_P1;SDS_P2;PMS_P1;PMS_P2;Temp;Humidity;BMP_temperature;BMP_pressure;BME280_temperature;BME280_humidity;BME280_pressure;Samples;Min_cycle;Max_cycle;Signal;HPM_P1;HPM_P2
2023/12/02 00:01:57;;;;;;;21.60;11.82;;;0.30;99.90;;;;;;5039084;28;20069;-77
2023/12/02 00:04:23;;;;;;;20.90;11.82;;;-0.30;99.90;;;;;;5038994;28;20013;-77
2023/12/02 00:06:49;;;;;;;19.10;10.90;;;-0.30;99.90;;;;;;5006782;28;20290;-77
2023/12/02 00:09:14;;;;;;;21.52;11.93;;;-0.30;99.90;;;;;;5038421;28;20018;-77
2023/12/02 00:11:40;;;;;;;21.67;12.10;;;-0.30;99.90;;;;;;5038699;28;20152;-77
2023/12/02 00:14:06;;;;;;;19.38;10.73;;;0.00;99.90;;;;;;5005176;28;20029;-77
2023/12/02 00:16:33;;;;;;;20.15;11.75;;;0.30;99.90;;;;;;5019897;28;20048;-77
2023/12/02 00:18:58;;;;;;;25.25;12.18;;;-0.30;99.90;;;;;;5037039;28;20094;-77
2023/12/02 00:21:24;;;;;;;22.65;12.02;;;-0.20;99.90;;;;;;5020391;28;20021;-77
2023/12/02 00:23:50;;;;;;;21.02;11.02;;;-0.20;99.90;;;;;;5001699;28;20036;-77
2023/12/02 00:26:16;;;;;;;21.60;12.30;;;0.60;99.90;;;;;;5019007;28;20067;-77
2023/12/02 00:28:42;;;;;;;20.67;11.60;;;-0.20;99.90;;;;;;5021346;28;20330;-77
2023/12/02 00:31:07;;;;;;;21.80;12.10;;;-0.20;99.90;;;;;;5067116;28;20120;-77
2023/12/02 00:33:33;;;;;;;22.02;11.45;;;-0.20;99.90;;;;;;5057894;28;20094;-77
2023/12/02 00:35:59;;;;;;;22.15;12.18;;;1.50;99.90;;;;;;5039347;28;20092;-77
2023/12/02 00:38:25;;;;;;;21.23;13.13;;;-0.20;99.90;;;;;;5056369;28;20044;-77
2023/12/02 00:40:50;;;;;;;20.92;11.52;;;-0.20;99.90;;;;;;5038886;28;20021;-77
2023/12/02 00:43:16;;;;;;;20.90;12.30;;;-0.20;99.90;;;;;;5034310;28;20025;-77
2023/12/02 00:45:42;;;;;;;20.35;11.23;;;1.30;99.90;;;;;;5024926;28;20084;-77
2023/12/02 00:48:07;;;;;;;19.58;11.32;;;1.10;99.90;;;;;;5020869;28;20020;-77
2023/12/02 00:50:34;;;;;;;20.33;10.68;;;-0.20;99.90;;;;;;5038504;28;20316;-77
2023/12/02 00:52:59;;;;;;;23.73;12.35;;;0.80;99.90;;;;;;5041889;28;20024;-77
2023/12/02 00:55:25;;;;;;;21.88;11.93;;;-0.10;99.90;;;;;;5022682;28;20266;-78
2023/12/02 00:57:51;;;;;;;20.10;11.68;;;1.30;99.90;;;;;;5077529;28;20029;-77
2023/12/02 01:00:17;;;;;;;20.58;11.70;;;-0.30;99.90;;;;;;5061541;28;20080;-77
2023/12/02 01:02:43;;;;;;;20.83;11.75;;;-0.30;99.90;;;;;;5062787;28;20286;-78
2023/12/02 01:05:09;;;;;;;22.05;11.95;;;0.40;99.90;;;;;;5060661;28;20051;-77
2023/12/02 01:07:35;;;;;;;21.10;11.45;;;-0.20;99.90;;;;;;5079043;28;20036;-77
2023/12/02 01:10:01;;;;;;;19.88;11.77;;;-0.20;99.90;;;;;;5079834;28;20020;-77
2023/12/02 01:12:27;;;;;;;20.73;11.30;;;0.40;99.90;;;;;;5056585;28;20047;-77
2023/12/02 01:14:52;;;;;;;21.27;11.35;;;-0.20;99.90;;;;;;5076749;28;20033;-77
2023/12/02 01:17:18;;;;;;;22.10;12.13;;;-0.20;99.90;;;;;;5045553;28;20028;-77
2023/12/02 01:19:44;;;;;;;21.35;11.38;;;-0.20;99.90;;;;;;5041762;28;20032;-77
2023/12/02 01:22:10;;;;;;;20.83;11.57;;;-0.20;99.90;;;;;;5040387;28;20143;-77
2023/12/02 01:24:36;;;;;;;20.70;11.82;;;-0.20;99.90;;;;;;5028960;28;20016;-77
2023/12/02 01:27:02;;;;;;;20.05;11.40;;;1.60;99.90;;;;;;5049661;28;20221;-77
2023/12/02 01:29:27;;;;;;;19.85;11.93;;;-0.20;99.90;;;;;;5045317;28;20220;-78
2023/12/02 01:31:53;;;;;;;22.23;11.77;;;-0.20;99.90;;;;;;5038230;28;20020;-78
2023/12/02 01:34:19;;;;;;;20.08;11.68;;;0.70;99.90;;;;;;5038566;28;20014;-78
2023/12/02 01:36:48;;;;;;;20.10;11.02;;;-0.20;99.90;;;;;;5038053;28;20091;-77
2023/12/02 01:39:14;;;;;;;19.92;11.18;;;-0.20;99.90;;;;;;5052506;28;20024;-77
2023/12/02 01:41:40;;;;;;;20.13;12.30;;;-0.20;99.90;;;;;;5053554;28;20012;-77
2023/12/02 01:44:06;;;;;;;20.02;10.95;;;0.90;99.90;;;;;;5060559;28;20025;-77
2023/12/02 01:46:32;;;;;;;20.48;10.85;;;0.60;99.90;;;;;;5042094;28;20274;-77
2023/12/02 01:49:00;;;;;;;20.73;11.90;;;-0.20;99.90;;;;;;5058034;28;20373;-77
2023/12/02 01:51:27;;;;;;;20.35;11.00;;;-0.20;99.90;;;;;;5060100;28;20032;-77
2023/12/02 01:53:53;;;;;;;19.00;10.73;;;0.40;99.90;;;;;;5058505;28;20034;-77
2023/12/02 01:56:19;;;;;;;21.83;12.30;;;0.80;99.90;;;;;;5089274;28;20025;-77
2023/12/02 01:58:47;;;;;;;23.08;12.63;;;1.70;99.90;;;;;;5038885;28;20049;-78
2023/12/02 02:01:13;;;;;;;20.45;11.23;;;-0.10;99.90;;;;;;5055537;28;20021;-77
2023/12/02 02:03:39;;;;;;;20.52;11.88;;;-0.10;99.90;;;;;;5053433;28;20052;-77
2023/12/02 02:06:08;;;;;;;21.90;12.02;;;1.80;99.90;;;;;;5025766;28;20350;-77
2023/12/02 02:08:34;;;;;;;21.13;11.85;;;-0.10;99.90;;;;;;5057806;28;20084;-77
2023/12/02 02:11:00;;;;;;;20.48;11.38;;;1.30;99.90;;;;;;5036938;28;20371;-77
2023/12/02 02:13:27;;;;;;;20.45;11.52;;;-0.20;99.90;;;;;;5043982;28;20208;-77
2023/12/02 02:15:53;;;;;;;20.65;11.13;;;1.20;99.90;;;;;;5031325;28;20072;-77
2023/12/02 02:18:19;;;;;;;21.35;12.13;;;-0.10;99.90;;;;;;5026272;28;20025;-77
2023/12/02 02:20:50;;;;;;;19.35;11.77;;;-0.20;99.90;;;;;;5024637;28;20045;-77
2023/12/02 02:23:16;;;;;;;20.80;12.57;;;-0.10;99.90;;;;;;5037150;28;20049;-77
2023/12/02 02:25:42;;;;;;;20.45;11.90;;;-0.20;99.90;;;;;;5024936;28;20159;-77
2023/12/02 02:28:07;;;;;;;21.20;12.15;;;-0.20;99.90;;;;;;5005668;28;20037;-78
2023/12/02 02:30:33;;;;;;;19.45;11.30;;;-0.20;99.90;;;;;;5035083;28;20096;-78
2023/12/02 02:32:59;;;;;;;20.13;11.57;;;0.70;99.90;;;;;;5009187;28;20139;-77
2023/12/02 02:35:24;;;;;;;19.05;10.68;;;-0.10;99.90;;;;;;5008845;28;20013;-77
2023/12/02 02:37:50;;;;;;;21.50;12.55;;;-0.20;99.90;;;;;;5025356;28;20028;-77
2023/12/02 02:40:16;;;;;;;22.00;12.15;;;-0.10;99.90;;;;;;5006739;28;20024;-77
2023/12/02 02:42:41;;;;;;;20.13;11.98;;;-0.10;99.90;;;;;;5039620;28;20129;-77
2023/12/02 02:45:07;;;;;;;20.95;11.95;;;1.10;99.90;;;;;;5022213;28;20032;-78
2023/12/02 02:47:33;;;;;;;20.45;11.98;;;-0.20;99.90;;;;;;5036315;28;20025;-78
2023/12/02 02:49:59;;;;;;;20.48;10.73;;;-0.20;99.90;;;;;;5020421;28;20053;-78
2023/12/02 02:52:24;;;;;;;20.52;11.65;;;-0.20;99.90;;;;;;5018823;28;20038;-78
2023/12/02 02:54:50;;;;;;;22.75;12.23;;;-0.20;99.90;;;;;;5026635;28;20028;-78
2023/12/02 02:57:20;;;;;;;20.30;10.85;;;-0.30;99.90;;;;;;5040276;28;20040;-78
2023/12/02 02:59:46;;;;;;;18.92;10.88;;;1.70;99.90;;;;;;5025832;28;20017;-78
2023/12/02 03:02:11;;;;;;;19.42;11.15;;;0.50;99.90;;;;;;5010517;28;20086;-77
2023/12/02 03:04:37;;;;;;;18.42;10.75;;;-0.20;99.90;;;;;;5042608;28;20017;-77
2023/12/02 03:07:03;;;;;;;20.80;12.25;;;-0.30;99.90;;;;;;5043378;28;20045;-77
2023/12/02 03:09:28;;;;;;;20.25;12.43;;;0.60;99.90;;;;;;5039558;28;20088;-77
2023/12/02 03:11:54;;;;;;;21.95;11.93;;;0.60;99.90;;;;;;5012187;28;20178;-77
2023/12/02 03:14:20;;;;;;;20.25;10.95;;;-0.30;99.90;;;;;;5033765;28;20033;-77
2023/12/02 03:16:46;;;;;;;21.80;12.85;;;0.20;99.90;;;;;;5049632;28;20025;-78
2023/12/02 03:19:11;;;;;;;19.13;11.38;;;0.60;99.90;;;;;;5066086;28;20341;-77
2023/12/02 03:21:37;;;;;;;20.13;12.05;;;-0.30;99.90;;;;;;5065479;28;20138;-78
2023/12/02 03:24:03;;;;;;;20.30;11.27;;;-0.30;99.90;;;;;;5049133;28;20027;-77
2023/12/02 03:26:29;;;;;;;21.85;12.25;;;-0.30;99.90;;;;;;5065471;28;20092;-78
2023/12/02 03:28:54;;;;;;;20.83;11.98;;;-0.30;99.90;;;;;;5099643;28;20028;-77
2023/12/02 03:31:20;;;;;;;19.02;11.15;;;-0.30;99.90;;;;;;5049146;28;20024;-77
2023/12/02 03:33:46;;;;;;;19.42;11.23;;;-0.30;99.90;;;;;;5060010;28;20021;-77
2023/12/02 03:36:11;;;;;;;19.35;11.40;;;-0.20;99.90;;;;;;5049193;28;20024;-77
2023/12/02 03:38:38;;;;;;;20.85;11.63;;;-0.20;99.90;;;;;;5082476;28;20180;-77
2023/12/02 03:41:04;;;;;;;23.23;11.88;;;-0.20;99.90;;;;;;5063365;28;20155;-77
2023/12/02 03:43:30;;;;;;;21.73;11.38;;;-0.20;99.90;;;;;;5066759;28;20031;-77
2023/12/02 03:45:55;;;;;;;19.55;11.05;;;-0.20;99.90;;;;;;5032654;28;20031;-77
2023/12/02 03:48:21;;;;;;;21.52;11.63;;;0.70;99.90;;;;;;5065045;28;20047;-77
2023/12/02 03:50:47;;;;;;;19.08;10.77;;;1.60;99.90;;;;;;5065577;28;20017;-77
2023/12/02 03:53:12;;;;;;;20.30;11.70;;;-0.20;99.90;;;;;;5056629;28;20028;-78
2023/12/02 03:55:38;;;;;;;21.27;11.98;;;-0.20;99.90;;;;;;5064883;28;20021;-77
2023/12/02 03:58:04;;;;;;;19.33;11.10;;;-0.20;99.90;;;;;;5071535;28;20251;-77
2023/12/02 04:00:30;;;;;;;18.10;10.45;;;-0.30;99.90;;;;;;5050535;28;20035;-77
2023/12/02 04:02:55;;;;;;;20.50;11.85;;;-0.30;99.90;;;;;;5047468;28;20082;-78
2023/12/02 04:05:21;;;;;;;18.58;10.32;;;-0.30;99.90;;;;;;5047513;28;20036;-78
2023/12/02 04:07:47;;;;;;;18.23;10.40;;;-0.30;99.90;;;;;;5050895;28;20024;-77
2023/12/02 04:10:13;;;;;;;18.15;10.95;;;0.60;99.90;;;;;;5047449;28;20262;-78
2023/12/02 04:12:38;;;;;;;18.92;10.70;;;1.10;99.90;;;;;;5047897;28;20020;-77
2023/12/02 04:15:06;;;;;;;20.83;11.32;;;-0.30;99.90;;;;;;5061734;28;20139;-78
2023/12/02 04:17:32;;;;;;;19.85;10.90;;;-0.30;99.90;;;;;;5060943;28;20092;-77
2023/12/02 04:19:58;;;;;;;18.65;10.48;;;-0.40;99.90;;;;;;5044267;28;20020;-77
2023/12/02 04:22:24;;;;;;;20.65;11.38;;;-0.40;99.90;;;;;;5060751;28;20043;-77
2023/12/02 04:24:50;;;;;;;18.65;10.68;;;-0.40;99.90;;;;;;5045058;28;20029;-77
2023/12/02 04:27:16;;;;;;;19.60;11.00;;;0.30;99.90;;;;;;5060783;28;20021;-77
2023/12/02 04:29:42;;;;;;;19.70;10.95;;;-0.40;99.90;;;;;;5044944;28;20055;-77
2023/12/02 04:32:08;;;;;;;19.02;11.13;;;-0.40;99.90;;;;;;5060450;28;20067;-77
2023/12/02 04:34:34;;;;;;;20.55;11.82;;;-0.40;99.90;;;;;;5060470;28;20013;-77
2023/12/02 04:37:01;;;;;;;19.52;10.98;;;-0.40;99.90;;;;;;5061321;28;20092;-78
2023/12/02 04:39:27;;;;;;;18.92;11.05;;;-0.40;99.90;;;;;;5049292;28;20193;-77
2023/12/02 04:41:53;;;;;;;19.00;11.40;;;-0.40;99.90;;;;;;5061134;28;20016;-77
2023/12/02 04:44:19;;;;;;;20.02;10.95;;;-0.40;99.90;;;;;;5053462;28;20292;-77
2023/12/02 04:46:45;;;;;;;21.05;11.50;;;-0.40;99.90;;;;;;5044599;28;20028;-77
2023/12/02 04:49:12;;;;;;;18.58;11.07;;;-0.40;99.90;;;;;;5057851;28;20071;-77
2023/12/02 04:51:38;;;;;;;19.55;10.90;;;-0.40;99.90;;;;;;5057297;28;20039;-77
2023/12/02 04:54:04;;;;;;;17.85;9.82;;;1.10;99.90;;;;;;5043051;28;20218;-77
2023/12/02 04:56:30;;;;;;;19.65;11.65;;;-0.40;99.90;;;;;;5058467;28;20024;-77
2023/12/02 04:58:56;;;;;;;18.58;10.23;;;0.40;99.90;;;;;;5046084;28;20422;-77
2023/12/02 05:01:22;;;;;;;18.55;10.82;;;-0.40;99.90;;;;;;5052276;28;20086;-77
2023/12/02 05:03:48;;;;;;;20.20;11.70;;;0.40;99.90;;;;;;5038597;28;20045;-78
2023/12/02 05:06:15;;;;;;;19.25;11.38;;;-0.50;99.90;;;;;;5055417;28;20059;-77
2023/12/02 05:08:41;;;;;;;19.17;10.52;;;0.70;99.90;;;;;;5060099;28;20032;-78
2023/12/02 05:11:07;;;;;;;18.85;11.25;;;1.30;99.90;;;;;;5076956;28;20035;-78
2023/12/02 05:13:33;;;;;;;17.77;10.27;;;-0.40;99.90;;;;;;5047094;28;20032;-78
2023/12/02 05:15:59;;;;;;;18.60;10.30;;;-0.40;99.90;;;;;;5060059;28;20040;-77
2023/12/02 05:18:25;;;;;;;18.10;10.73;;;-0.20;99.90;;;;;;5043472;28;20172;-77
2023/12/02 05:20:50;;;;;;;18.55;11.00;;;-0.40;99.90;;;;;;5043045;28;20017;-77
2023/12/02 05:23:16;;;;;;;18.45;10.60;;;1.30;99.90;;;;;;5059974;28;20025;-77
2023/12/02 05:25:42;;;;;;;20.38;11.52;;;1.30;99.90;;;;;;5044224;28;20036;-78
2023/12/02 05:28:07;;;;;;;19.38;11.35;;;0.40;99.90;;;;;;5043260;28;20021;-77
2023/12/02 05:30:36;;;;;;;20.05;11.00;;;-0.10;99.90;;;;;;5041400;28;20247;-78
2023/12/02 05:33:01;;;;;;;19.85;10.57;;;-0.60;99.90;;;;;;5026513;28;20082;-77
2023/12/02 05:35:27;;;;;;;19.00;11.23;;;0.00;99.90;;;;;;5057438;28;20024;-78
2023/12/02 05:37:53;;;;;;;18.98;10.80;;;-0.60;99.90;;;;;;5039358;28;20021;-78
2023/12/02 05:40:18;;;;;;;20.02;11.52;;;0.10;99.90;;;;;;5094403;28;20016;-78
2023/12/02 05:42:44;;;;;;;19.50;11.63;;;1.30;99.90;;;;;;5058938;28;20024;-77
2023/12/02 05:45:10;;;;;;;18.98;11.57;;;1.40;99.90;;;;;;5062644;28;20071;-78
2023/12/02 05:47:36;;;;;;;20.20;12.38;;;-0.60;99.90;;;;;;5061098;28;20044;-78
2023/12/02 05:50:03;;;;;;;18.90;11.43;;;-0.40;99.90;;;;;;5064153;28;20174;-77
2023/12/02 05:52:28;;;;;;;19.02;10.82;;;-0.60;99.90;;;;;;5063178;28;20075;-78
2023/12/02 05:54:55;;;;;;;19.75;11.27;;;-0.60;99.90;;;;;;5046982;28;20021;-78
2023/12/02 05:57:21;;;;;;;19.17;10.57;;;-0.50;99.90;;;;;;5063354;28;20013;-77
2023/12/02 05:59:46;;;;;;;18.25;11.10;;;-0.50;99.90;;;;;;5045041;28;20085;-77
2023/12/02 06:02:12;;;;;;;19.83;11.10;;;0.70;99.90;;;;;;5079879;28;20259;-78
2023/12/02 06:04:38;;;;;;;20.17;12.27;;;-0.60;99.90;;;;;;5083065;28;20048;-77
2023/12/02 06:07:03;;;;;;;18.10;10.73;;;0.80;99.90;;;;;;5067284;28;20027;-77
2023/12/02 06:09:29;;;;;;;19.70;11.48;;;0.50;99.90;;;;;;5066206;28;20205;-77
2023/12/02 06:11:55;;;;;;;19.33;10.95;;;-0.50;99.90;;;;;;5066760;28;20063;-77
2023/12/02 06:14:21;;;;;;;20.40;11.52;;;-0.60;99.90;;;;;;5066947;28;20078;-77
2023/12/02 06:16:46;;;;;;;19.30;11.07;;;0.90;99.90;;;;;;5066216;28;20091;-77
2023/12/02 06:19:12;;;;;;;18.90;10.88;;;-0.60;99.90;;;;;;5067920;28;20039;-77
2023/12/02 06:21:38;;;;;;;19.85;12.02;;;-0.60;99.90;;;;;;5087240;28;20090;-77
2023/12/02 06:24:04;;;;;;;18.75;10.90;;;-0.60;99.90;;;;;;5087586;28;20262;-77
2023/12/02 06:26:30;;;;;;;19.20;10.90;;;-0.60;99.90;;;;;;5054308;28;20028;-77
2023/12/02 06:28:56;;;;;;;18.58;11.18;;;-0.50;99.90;;;;;;5070974;28;20284;-78
2023/12/02 06:31:21;;;;;;;19.05;10.88;;;-0.60;99.90;;;;;;5069760;28;20043;-78
2023/12/02 06:33:48;;;;;;;20.30;11.45;;;-0.40;99.90;;;;;;5069600;28;20016;-77
2023/12/02 06:36:14;;;;;;;19.67;11.45;;;-0.60;99.90;;;;;;5070204;28;20020;-77
2023/12/02 06:38:40;;;;;;;19.80;11.60;;;0.10;99.90;;;;;;5062979;28;20182;-77
2023/12/02 06:41:06;;;;;;;18.75;11.45;;;0.20;99.90;;;;;;5084202;28;20055;-78
2023/12/02 06:43:32;;;;;;;19.85;12.35;;;-0.60;99.90;;;;;;5086340;28;20379;-78
2023/12/02 06:45:57;;;;;;;18.35;11.23;;;-0.60;99.90;;;;;;5086821;28;20091;-77
2023/12/02 06:48:23;;;;;;;17.60;10.98;;;-0.60;99.90;;;;;;5069217;28;20047;-77
2023/12/02 06:50:49;;;;;;;17.75;10.80;;;-0.60;99.90;;;;;;5070077;28;20032;-77
2023/12/02 06:53:16;;;;;;;18.95;10.85;;;-0.60;99.90;;;;;;5068053;28;20028;-77
2023/12/02 06:55:42;;;;;;;19.98;11.05;;;-0.70;99.90;;;;;;5065286;28;20024;-77
2023/12/02 06:58:08;;;;;;;20.00;11.27;;;-0.60;99.90;;;;;;5086339;28;20035;-77
2023/12/02 07:00:34;;;;;;;19.23;11.05;;;-0.60;99.90;;;;;;5052169;28;20258;-77
2023/12/02 07:03:00;;;;;;;19.17;11.07;;;0.10;99.90;;;;;;5069183;28;20036;-77
2023/12/02 07:05:26;;;;;;;18.88;11.10;;;0.10;99.90;;;;;;5069735;28;20050;-77
2023/12/02 07:07:52;;;;;;;20.23;11.75;;;-0.10;99.90;;;;;;5086376;28;20091;-77
2023/12/02 07:10:18;;;;;;;20.23;11.23;;;-0.60;99.90;;;;;;5051688;28;20016;-77
2023/12/02 07:12:44;;;;;;;20.20;11.63;;;-0.60;99.90;;;;;;5053162;28;20028;-77
2023/12/02 07:15:11;;;;;;;18.35;11.15;;;-0.60;99.90;;;;;;5082555;28;20063;-78
2023/12/02 07:17:37;;;;;;;19.45;11.30;;;-0.60;99.90;;;;;;5082331;28;20148;-78
2023/12/02 07:20:03;;;;;;;22.02;11.23;;;-0.60;99.90;;;;;;5065488;28;20035;-78
2023/12/02 07:22:29;;;;;;;19.50;10.90;;;-0.60;99.90;;;;;;5081501;28;20165;-78
2023/12/02 07:24:54;;;;;;;18.63;10.90;;;-0.10;99.90;;;;;;5082812;28;20277;-77
2023/12/02 07:27:20;;;;;;;18.55;10.95;;;-0.50;99.90;;;;;;5065244;28;20005;-78
2023/12/02 07:29:46;;;;;;;21.60;11.30;;;0.10;99.90;;;;;;5082289;28;20324;-77
2023/12/02 07:32:11;;;;;;;17.70;10.82;;;-0.50;99.90;;;;;;5064050;28;20036;-78
2023/12/02 07:34:37;;;;;;;18.88;10.95;;;1.20;99.90;;;;;;5065212;28;20020;-78
2023/12/02 07:37:03;;;;;;;20.92;11.85;;;-0.60;99.90;;;;;;5081838;28;20020;-77
2023/12/02 07:39:29;;;;;;;18.98;11.55;;;-0.50;99.90;;;;;;5065226;28;20284;-78
2023/12/02 07:41:55;;;;;;;20.02;11.32;;;-0.50;99.90;;;;;;5078311;28;20056;-78
2023/12/02 07:44:21;;;;;;;20.10;11.50;;;0.40;99.90;;;;;;5064673;28;20394;-78
2023/12/02 07:46:46;;;;;;;18.08;10.30;;;1.10;99.90;;;;;;5081239;28;20099;-78
2023/12/02 07:49:12;;;;;;;20.02;11.55;;;-0.50;99.90;;;;;;5064574;28;20079;-78
2023/12/02 07:51:38;;;;;;;17.73;10.68;;;-0.50;99.90;;;;;;5048668;28;20271;-77
2023/12/02 07:54:04;;;;;;;19.42;11.55;;;-0.50;99.90;;;;;;5063318;28;20225;-77
2023/12/02 07:56:29;;;;;;;17.70;9.80;;;-0.50;99.90;;;;;;5082019;28;20028;-78
2023/12/02 07:58:55;;;;;;;19.65;11.13;;;1.20;99.90;;;;;;5064653;28;20039;-78
2023/12/02 08:01:21;;;;;;;21.35;12.27;;;-0.50;99.90;;;;;;5064764;28;20020;-78
2023/12/02 08:03:47;;;;;;;21.30;11.80;;;-0.50;99.90;;;;;;5062069;28;20175;-79
2023/12/02 08:06:13;;;;;;;20.85;11.15;;;0.40;99.90;;;;;;5062644;28;20047;-79
2023/12/02 08:08:39;;;;;;;20.85;11.55;;;-0.40;99.90;;;;;;5060063;28;20167;-79
2023/12/02 08:11:05;;;;;;;19.08;11.40;;;-0.40;99.90;;;;;;5079450;28;20028;-79
2023/12/02 08:13:31;;;;;;;19.52;10.82;;;-0.40;99.90;;;;;;5061932;28;20138;-79
2023/12/02 08:15:57;;;;;;;19.50;10.73;;;-0.40;99.90;;;;;;5044073;28;20040;-79
2023/12/02 08:18:23;;;;;;;19.30;11.02;;;-0.60;99.90;;;;;;5075046;28;20310;-79
2023/12/02 08:20:49;;;;;;;20.67;11.90;;;-0.30;99.90;;;;;;5044933;28;20009;-79
2023/12/02 08:23:15;;;;;;;18.45;11.40;;;0.20;99.90;;;;;;5057832;28;20058;-79
2023/12/02 08:25:41;;;;;;;18.25;10.20;;;-0.30;99.90;;;;;;5079694;28;20029;-79
2023/12/02 08:28:07;;;;;;;18.15;10.55;;;-0.30;99.90;;;;;;5077174;28;20062;-79
2023/12/02 08:30:33;;;;;;;19.63;11.40;;;-0.30;99.90;;;;;;5079699;28;20289;-79
2023/12/02 08:32:58;;;;;;;18.50;10.60;;;-0.30;99.90;;;;;;5063712;28;20494;-79
2023/12/02 08:35:24;;;;;;;19.38;11.02;;;0.40;99.90;;;;;;5046146;28;20013;-79
2023/12/02 08:37:50;;;;;;;19.17;12.05;;;0.40;99.90;;;;;;5065784;28;20008;-79
2023/12/02 08:40:15;;;;;;;20.17;11.55;;;-0.30;99.90;;;;;;5045651;28;20040;-79
2023/12/02 08:42:41;;;;;;;18.60;11.07;;;-0.20;99.90;;;;;;5058516;28;20017;-79
2023/12/02 08:45:07;;;;;;;19.48;11.30;;;-0.20;99.90;;;;;;5075625;28;21267;-79
2023/12/02 08:47:33;;;;;;;19.42;11.57;;;-0.20;99.90;;;;;;5043064;28;20036;-79
2023/12/02 08:49:59;;;;;;;19.30;11.38;;;-0.10;99.90;;;;;;5054328;28;20060;-79
2023/12/02 08:52:25;;;;;;;17.60;10.57;;;1.70;99.90;;;;;;5061173;28;20074;-79
2023/12/02 08:54:51;;;;;;;20.10;11.13;;;-0.10;99.90;;;;;;5043132;28;20024;-79
2023/12/02 08:57:17;;;;;;;21.80;12.80;;;-0.10;99.90;;;;;;5060856;28;20028;-79
2023/12/02 08:59:43;;;;;;;20.08;11.70;;;0.50;99.90;;;;;;5043404;28;20044;-79
2023/12/02 09:02:09;;;;;;;19.42;11.30;;;0.00;99.90;;;;;;5077334;28;20055;-79
2023/12/02 09:04:35;;;;;;;20.90;10.93;;;0.00;99.90;;;;;;5077487;28;20250;-79
2023/12/02 09:07:01;;;;;;;20.40;12.02;;;-0.10;99.90;;;;;;5077734;28;20268;-79
2023/12/02 09:09:27;;;;;;;18.60;11.32;;;0.10;99.90;;;;;;5027220;28;20035;-79
2023/12/02 09:11:53;;;;;;;19.48;11.25;;;0.60;99.90;;;;;;5078200;28;20028;-79
2023/12/02 09:14:19;;;;;;;20.92;11.60;;;0.00;99.90;;;;;;5074309;28;20040;-79
2023/12/02 09:16:47;;;;;;;19.30;11.40;;;0.00;99.90;;;;;;5060715;28;20306;-79
2023/12/02 09:19:37;;;;;;;19.15;10.57;;;0.10;99.90;;;;;;5080896;28;20032;-79
2023/12/02 09:22:05;;;;;;;21.50;11.93;;;0.20;99.90;;;;;;5078706;28;20123;-78
2023/12/02 09:24:38;;;;;;;20.35;10.85;;;0.80;99.90;;;;;;5046983;28;20237;-79
2023/12/02 09:27:08;;;;;;;21.88;12.05;;;0.30;99.90;;;;;;5058545;28;20036;-79
2023/12/02 09:29:37;;;;;;;19.25;10.85;;;0.30;99.90;;;;;;5080993;28;20046;-79
2023/12/02 09:32:23;;;;;;;17.65;10.27;;;1.20;99.90;;;;;;5078138;28;20044;-79
2023/12/02 09:34:57;;;;;;;20.20;11.25;;;0.40;99.90;;;;;;5077303;28;20129;-79
2023/12/02 09:37:54;;;;;;;20.17;11.73;;;1.50;99.90;;;;;;5062229;28;20013;-79
2023/12/02 09:40:26;;;;;;;19.35;11.02;;;0.50;99.90;;;;;;5080339;28;20028;-79
2023/12/02 09:42:57;;;;;;;19.23;11.45;;;0.50;99.90;;;;;;5062636;28;20024;-79
2023/12/02 09:45:35;;;;;;;18.75;10.88;;;3.10;99.90;;;;;;5064896;28;20032;-79
2023/12/02 09:48:05;;;;;;;20.02;11.15;;;0.60;99.90;;;;;;5080249;28;20044;-79
2023/12/02 09:50:56;;;;;;;19.10;10.55;;;0.70;99.90;;;;;;5076984;28;20020;-79
2023/12/02 09:53:41;;;;;;;20.17;11.25;;;0.70;99.90;;;;;;5060365;28;20020;-78
2023/12/02 09:56:23;;;;;;;19.25;11.50;;;0.70;99.90;;;;;;5077200;28;20021;-78
2023/12/02 09:59:00;;;;;;;18.63;11.05;;;0.70;99.90;;;;;;5080119;28;20050;-78
2023/12/02 10:01:33;;;;;;;18.23;10.32;;;0.70;99.90;;;;;;5078390;28;20112;-78
2023/12/02 10:04:11;;;;;;;18.83;10.88;;;0.70;99.90;;;;;;5078891;28;20058;-78
2023/12/02 10:07:24;;;;;;;18.73;10.80;;;0.80;99.90;;;;;;5052830;28;20021;-78
2023/12/02 10:10:17;;;;;;;18.60;10.48;;;0.80;99.90;;;;;;5058844;28;20174;-78
2023/12/02 10:13:16;;;;;;;19.45;10.98;;;0.90;99.90;;;;;;5026636;28;20035;-80
2023/12/02 10:15:42;;;;;;;18.00;10.68;;;1.00;99.90;;;;;;5052474;28;20041;-79
2023/12/02 10:18:13;;;;;;;18.20;11.02;;;1.90;99.90;;;;;;5063042;28;20285;-80
2023/12/02 10:20:41;;;;;;;18.30;11.05;;;1.90;99.90;;;;;;5078281;28;20063;-81
2023/12/02 10:23:32;;;;;;;19.52;11.02;;;2.70;99.90;;;;;;5079671;28;20085;-79
2023/12/02 10:26:24;;;;;;;20.45;11.43;;;1.10;99.90;;;;;;5073715;28;20032;-80
2023/12/02 10:29:28;;;;;;;19.77;10.65;;;1.20;99.90;;;;;;5076657;28;20016;-79
2023/12/02 10:32:06;;;;;;;;;;;1.20;99.90;;;;;;5078968;28;20091;-80
2023/12/02 10:34:54;;;;;;;20.73;10.90;;;1.30;99.90;;;;;;5078263;28;19951;-80
2023/12/02 10:37:35;;;;;;;18.90;10.13;;;1.30;99.90;;;;;;5077654;28;20282;-80
2023/12/02 10:40:07;;;;;;;19.17;11.88;;;2.80;99.90;;;;;;5080972;28;20028;-80
2023/12/02 10:42:55;;;;;;;18.98;10.65;;;1.40;99.90;;;;;;5078278;28;20020;-80
2023/12/02 10:45:24;;;;;;;18.38;10.20;;;1.40;99.90;;;;;;5062986;28;20024;-80
2023/12/02 10:47:52;;;;;;;20.48;11.90;;;1.40;99.90;;;;;;5062090;28;20037;-80
2023/12/02 10:50:18;;;;;;;20.30;12.40;;;3.30;99.90;;;;;;5078389;28;20336;-80
2023/12/02 10:53:19;;;;;;;18.88;11.45;;;1.60;99.90;;;;;;5059074;28;20035;-80
2023/12/02 10:55:50;;;;;;;20.50;12.10;;;2.40;99.90;;;;;;5026859;28;20052;-80
2023/12/02 10:58:16;;;;;;;20.52;11.13;;;1.70;99.90;;;;;;5081297;28;20101;-80
2023/12/02 11:00:47;;;;;;;19.15;11.20;;;2.90;99.90;;;;;;5062344;28;20033;-80
2023/12/02 11:03:18;;;;;;;19.30;11.45;;;1.70;99.90;;;;;;5076106;28;20020;-80
2023/12/02 11:06:00;;;;;;;17.25;10.40;;;1.80;99.90;;;;;;5059405;28;20091;-80
2023/12/02 11:08:53;;;;;;;19.50;11.45;;;1.90;99.90;;;;;;5078375;28;20158;-79
2023/12/02 11:11:39;;;;;;;;;;;1.90;99.90;;;;;;5062547;28;20075;-79
2023/12/02 11:14:10;;;;;;;17.77;10.48;;;3.10;99.90;;;;;;5095165;28;20038;-79
2023/12/02 11:17:08;;;;;;;20.90;10.80;;;1.90;99.90;;;;;;5077514;28;20040;-79
2023/12/02 11:19:44;;;;;;;18.40;10.45;;;1.90;99.90;;;;;;5077717;28;20270;-79
2023/12/02 11:22:44;;;;;;;20.75;12.07;;;3.10;99.90;;;;;;5079211;28;20203;-79
2023/12/02 11:25:22;;;;;;;18.38;10.57;;;1.90;99.90;;;;;;5094299;28;20255;-79
2023/12/02 11:28:13;;;;;;;17.75;10.07;;;2.00;99.90;;;;;;5078161;28;20032;-79
2023/12/02 11:30:39;;;;;;;19.00;10.80;;;3.10;99.90;;;;;;5078614;28;20054;-79
2023/12/02 11:33:36;;;;;;;17.50;10.48;;;3.30;99.90;;;;;;5078510;28;20048;-79
2023/12/02 11:36:20;;;;;;;17.63;10.35;;;2.10;99.90;;;;;;5060695;28;20056;-79
2023/12/02 11:39:08;;;;;;;16.73;9.13;;;2.20;99.90;;;;;;5077601;28;20059;-79
2023/12/02 11:41:55;;;;;;;17.45;10.43;;;2.20;99.90;;;;;;5061279;28;20045;-79
2023/12/02 11:44:30;;;;;;;17.23;9.35;;;2.30;99.90;;;;;;5076399;28;20024;-80
2023/12/02 11:47:24;;;;;;;16.08;9.48;;;2.30;99.90;;;;;;5061848;28;20047;-80
2023/12/02 11:50:08;;;;;;;19.27;10.40;;;2.30;99.90;;;;;;5076365;28;20020;-80
2023/12/02 11:52:53;;;;;;;17.33;9.35;;;2.20;99.90;;;;;;5077832;28;20025;-79
2023/12/02 11:55:30;;;;;;;18.27;9.70;;;3.80;99.90;;;;;;5077602;28;20183;-80
2023/12/02 11:58:03;;;;;;;17.63;9.25;;;2.20;99.90;;;;;;5060676;28;20101;-80
2023/12/02 12:00:41;;;;;;;16.23;9.50;;;2.90;99.90;;;;;;5060176;28;20096;-79
2023/12/02 12:03:19;;;;;;;16.63;9.02;;;2.30;99.90;;;;;;5078148;28;20028;-80
2023/12/02 12:06:16;;;;;;;17.80;9.93;;;3.30;99.90;;;;;;5061505;28;20032;-79
2023/12/02 12:09:26;;;;;;;16.52;9.88;;;2.10;99.90;;;;;;5077473;28;20420;-79
2023/12/02 12:11:54;;;;;;;16.98;9.63;;;2.10;99.90;;;;;;5086188;28;20025;-80
2023/12/02 12:14:21;;;;;;;16.10;9.50;;;2.00;99.90;;;;;;5078293;28;20209;-80
2023/12/02 12:16:47;;;;;;;16.13;9.10;;;2.90;99.90;;;;;;5077454;28;20033;-79
2023/12/02 12:19:13;;;;;;;15.13;8.93;;;2.80;99.90;;;;;;5027643;28;20313;-80
2023/12/02 12:21:40;;;;;;;15.70;9.30;;;2.70;99.90;;;;;;5076470;28;20074;-80
2023/12/02 12:24:06;;;;;;;15.85;9.07;;;2.90;99.90;;;;;;5061599;28;20036;-80
2023/12/02 12:26:32;;;;;;;17.27;9.45;;;2.00;99.90;;;;;;5044464;28;20141;-80
2023/12/02 12:28:57;;;;;;;16.75;9.57;;;2.00;99.90;;;;;;5060979;28;20052;-80
2023/12/02 12:31:27;;;;;;;15.10;8.88;;;2.00;99.90;;;;;;5062663;28;20036;-79
2023/12/02 12:33:53;;;;;;;17.23;9.60;;;2.70;99.90;;;;;;5061901;28;20356;-80
2023/12/02 12:36:29;;;;;;;16.33;9.50;;;2.00;99.90;;;;;;5028476;28;20016;-79
2023/12/02 12:38:59;;;;;;;15.25;9.05;;;2.10;99.90;;;;;;5057981;28;20032;-80
2023/12/02 12:41:25;;;;;;;15.95;8.88;;;2.20;99.90;;;;;;5075904;28;20036;-80
2023/12/02 12:43:54;;;;;;;14.57;8.85;;;2.40;99.90;;;;;;5044102;28;20016;-80